createdAt,value
2018-09-26T00:00:10.930Z,63.317871
2018-09-26T00:00:41.362Z,63.220215
2018-09-26T00:01:10.814Z,63.122559
2018-09-26T00:01:40.207Z,63.250732
2018-09-26T00:02:09.584Z,63.250732
2018-09-26T00:02:38.965Z,63.549805
2018-09-26T00:03:08.347Z,63.348389
2018-09-26T00:03:38.365Z,63.348389
2018-09-26T00:04:07.849Z,63.348389
2018-09-26T00:04:37.311Z,63.677979
2018-09-26T00:05:06.701Z,63.977051
2018-09-26T00:05:36.305Z,63.879395
2018-09-26T00:06:05.720Z,63.677979
2018-09-26T00:06:36.340Z,63.677979
2018-09-26T00:07:05.756Z,63.677979
2018-09-26T00:07:35.325Z,63.580322
2018-09-26T00:08:04.688Z,63.677979
2018-09-26T00:08:34.087Z,63.879395
2018-09-26T00:09:03.488Z,64.074707
2018-09-26T00:09:32.861Z,63.977051
2018-09-26T00:10:02.264Z,64.074707
2018-09-26T00:10:31.665Z,63.879395
2018-09-26T00:11:01.029Z,63.781738
2018-09-26T00:11:30.482Z,63.781738
2018-09-26T00:11:59.913Z,63.879395
2018-09-26T00:12:29.635Z,63.677979
2018-09-26T00:12:59.751Z,63.677979
2018-09-26T00:13:29.310Z,63.677979
2018-09-26T00:13:59.072Z,63.879395
2018-09-26T00:14:28.542Z,63.977051
2018-09-26T00:14:58.129Z,64.074707
2018-09-26T00:15:27.715Z,64.178467
2018-09-26T00:15:57.162Z,64.276123
2018-09-26T00:16:26.700Z,64.373779
2018-09-26T00:16:57.426Z,64.373779
2018-09-26T00:17:27.185Z,64.373779
2018-09-26T00:17:56.836Z,64.178467
2018-09-26T00:18:26.251Z,64.477539
2018-09-26T00:18:55.796Z,64.575195
2018-09-26T00:19:25.475Z,64.575195
2018-09-26T00:19:55.197Z,64.807129
2018-09-26T00:20:25.279Z,65.008545
2018-09-26T00:20:54.972Z,65.203857
2018-09-26T00:21:24.535Z,65.307617
2018-09-26T00:21:54.139Z,65.405273
2018-09-26T00:22:23.632Z,65.405273
2018-09-26T00:22:53.280Z,65.405273
2018-09-26T00:23:22.758Z,65.50293
2018-09-26T00:23:52.399Z,65.106201
2018-09-26T00:24:21.911Z,65.203857
2018-09-26T00:24:51.440Z,65.307617
2018-09-26T00:25:20.824Z,65.106201
2018-09-26T00:25:51.238Z,65.307617
2018-09-26T00:26:20.938Z,64.904785
2018-09-26T00:26:50.855Z,64.904785
2018-09-26T00:27:20.521Z,64.807129
2018-09-26T00:27:50.328Z,64.874268
2018-09-26T00:28:20.025Z,64.373779
2018-09-26T00:28:49.821Z,64.276123
2018-09-26T00:29:19.414Z,64.575195
2018-09-26T00:29:49.043Z,64.373779
2018-09-26T00:30:18.777Z,64.178467
2018-09-26T00:30:48.372Z,64.074707
2018-09-26T00:31:18.032Z,64.276123
2018-09-26T00:31:47.704Z,64.477539
2018-09-26T00:32:17.242Z,64.807129
2018-09-26T00:32:46.615Z,64.904785
2018-09-26T00:33:16.152Z,65.435791
2018-09-26T00:33:45.524Z,65.936279
2018-09-26T00:34:14.927Z,66.265869
2018-09-26T00:34:44.353Z,66.564941
2018-09-26T00:35:13.731Z,66.564941
2018-09-26T00:35:43.284Z,66.363525
2018-09-26T00:36:13.067Z,66.363525
2018-09-26T00:36:42.428Z,66.033936
2018-09-26T00:37:12.280Z,66.833496
2018-09-26T00:37:41.946Z,65.50293
2018-09-26T00:38:11.269Z,65.307617
2018-09-26T00:38:40.665Z,65.50293
2018-09-26T00:39:10.051Z,65.606689
2018-09-26T00:39:40.448Z,65.50293
2018-09-26T00:40:09.955Z,65.405273
2018-09-26T00:40:40.206Z,65.106201
2018-09-26T00:41:10.196Z,65.203857
2018-09-26T00:41:40.191Z,65.203857
2018-09-26T00:42:09.699Z,65.637207
2018-09-26T00:42:39.429Z,66.033936
2018-09-26T00:43:09.412Z,66.131592
2018-09-26T00:43:39.001Z,66.131592
2018-09-26T00:44:08.864Z,65.936279
2018-09-26T00:44:38.630Z,66.033936
2018-09-26T00:45:08.270Z,65.936279
2018-09-26T00:45:38.081Z,65.50293
2018-09-26T00:46:07.653Z,65.307617
2018-09-26T00:46:37.269Z,65.405273
2018-09-26T00:47:06.820Z,65.50293
2018-09-26T00:47:36.357Z,65.435791
2018-09-26T00:48:05.908Z,65.637207
2018-09-26T00:48:35.531Z,65.734863
2018-09-26T00:49:05.116Z,65.83252
2018-09-26T00:49:34.495Z,65.83252
2018-09-26T00:50:03.882Z,65.637207
2018-09-26T00:50:33.254Z,65.50293
2018-09-26T00:51:02.878Z,66.003418
2018-09-26T00:51:32.488Z,65.405273
2018-09-26T00:52:02.083Z,65.307617
2018-09-26T00:52:31.859Z,65.533447
2018-09-26T00:53:01.349Z,65.83252
2018-09-26T00:53:30.991Z,65.936279
2018-09-26T00:54:00.630Z,66.235352
2018-09-26T00:54:31.330Z,66.131592
2018-09-26T00:55:00.964Z,65.83252
2018-09-26T00:55:30.524Z,65.936279
2018-09-26T00:56:00.698Z,65.936279
2018-09-26T00:56:30.538Z,65.637207
2018-09-26T00:57:00.269Z,65.637207
2018-09-26T00:57:30.858Z,65.83252
2018-09-26T00:58:00.947Z,65.83252
2018-09-26T00:58:30.435Z,66.033936
2018-09-26T00:59:00.022Z,65.83252
2018-09-26T00:59:29.535Z,65.734863
2018-09-26T00:59:59.667Z,65.734863
2018-09-26T01:00:29.319Z,65.637207
2018-09-26T01:00:59.898Z,65.533447
2018-09-26T01:01:29.536Z,65.338135
2018-09-26T01:01:59.252Z,65.338135
2018-09-26T01:02:28.916Z,65.106201
2018-09-26T01:02:59.903Z,64.904785
2018-09-26T01:03:29.262Z,65.106201
2018-09-26T01:03:58.987Z,64.904785
2018-09-26T01:04:28.521Z,65.136719
2018-09-26T01:04:58.088Z,65.136719
2018-09-26T01:05:27.860Z,65.136719
2018-09-26T01:05:57.584Z,65.338135
2018-09-26T01:06:27.319Z,65.637207
2018-09-26T01:06:57.041Z,65.338135
2018-09-26T01:07:26.635Z,65.734863
2018-09-26T01:07:56.086Z,66.168213
2018-09-26T01:08:26.192Z,66.363525
2018-09-26T01:08:55.558Z,66.265869
2018-09-26T01:09:24.948Z,66.131592
2018-09-26T01:09:54.614Z,66.131592
2018-09-26T01:10:24.573Z,65.734863
2018-09-26T01:10:54.206Z,65.637207
2018-09-26T01:11:23.716Z,65.106201
2018-09-26T01:11:53.275Z,65.008545
2018-09-26T01:12:22.893Z,65.008545
2018-09-26T01:12:52.479Z,65.106201
2018-09-26T01:13:22.069Z,65.008545
2018-09-26T01:13:51.651Z,65.106201
2018-09-26T01:14:21.042Z,65.106201
2018-09-26T01:14:50.568Z,65.203857
2018-09-26T01:15:20.128Z,65.203857
2018-09-26T01:15:49.703Z,65.50293
2018-09-26T01:16:19.414Z,65.106201
2018-09-26T01:16:49.065Z,65.203857
2018-09-26T01:17:18.745Z,65.307617
2018-09-26T01:17:48.641Z,65.435791
2018-09-26T01:18:18.754Z,65.533447
2018-09-26T01:18:48.753Z,65.533447
2018-09-26T01:19:18.249Z,65.435791
2018-09-26T01:19:47.910Z,65.637207
2018-09-26T01:20:17.393Z,65.533447
2018-09-26T01:20:47.234Z,65.106201
2018-09-26T01:21:16.915Z,65.106201
2018-09-26T01:21:46.621Z,64.904785
2018-09-26T01:22:17.141Z,65.008545
2018-09-26T01:22:46.903Z,64.904785
2018-09-26T01:23:16.513Z,64.605713
2018-09-26T01:23:46.335Z,64.508057
2018-09-26T01:24:16.203Z,64.4104
2018-09-26T01:24:45.864Z,64.4104
2018-09-26T01:25:16.623Z,64.306641
2018-09-26T01:25:46.638Z,64.4104
2018-09-26T01:26:16.404Z,64.508057
2018-09-26T01:26:46.506Z,64.208984
2018-09-26T01:27:16.064Z,64.208984
2018-09-26T01:27:46.091Z,64.306641
2018-09-26T01:28:15.749Z,64.111328
2018-09-26T01:28:45.171Z,64.208984
2018-09-26T01:29:14.721Z,64.208984
2018-09-26T01:29:44.507Z,64.111328
2018-09-26T01:30:14.060Z,64.111328
2018-09-26T01:30:43.588Z,63.909912
2018-09-26T01:31:13.186Z,63.909912
2018-09-26T01:31:42.768Z,64.208984
2018-09-26T01:32:12.327Z,63.909912
2018-09-26T01:32:42.104Z,63.909912
2018-09-26T01:33:11.709Z,63.909912
2018-09-26T01:33:41.355Z,64.007568
2018-09-26T01:34:11.069Z,63.909912
2018-09-26T01:34:40.456Z,64.007568
2018-09-26T01:35:09.853Z,64.208984
2018-09-26T01:35:39.328Z,64.4104
2018-09-26T01:36:08.733Z,64.306641
2018-09-26T01:36:38.104Z,63.812256
2018-09-26T01:37:07.586Z,63.909912
2018-09-26T01:37:37.297Z,63.708496
2018-09-26T01:38:07.392Z,63.708496
2018-09-26T01:38:36.836Z,63.812256
2018-09-26T01:39:07.199Z,63.909912
2018-09-26T01:39:36.585Z,64.007568
2018-09-26T01:40:05.961Z,64.111328
2018-09-26T01:40:35.350Z,63.909912
2018-09-26T01:41:04.736Z,64.007568
2018-09-26T01:41:34.211Z,64.111328
2018-09-26T01:42:03.553Z,64.208984
2018-09-26T01:42:32.920Z,64.208984
2018-09-26T01:43:02.321Z,64.306641
2018-09-26T01:43:31.716Z,64.440918
2018-09-26T01:44:01.181Z,64.538574
2018-09-26T01:44:30.771Z,64.63623
2018-09-26T01:45:00.207Z,64.73999
2018-09-26T01:45:29.610Z,64.63623
2018-09-26T01:45:59.995Z,64.605713
2018-09-26T01:46:29.392Z,64.538574
2018-09-26T01:46:58.882Z,64.4104
2018-09-26T01:47:28.316Z,64.337158
2018-09-26T01:47:57.724Z,64.306641
2018-09-26T01:48:27.147Z,64.337158
2018-09-26T01:48:56.740Z,64.337158
2018-09-26T01:49:26.409Z,64.538574
2018-09-26T01:49:55.947Z,64.440918
2018-09-26T01:50:25.301Z,64.538574
2018-09-26T01:50:54.674Z,64.337158
2018-09-26T01:51:24.077Z,64.239502
2018-09-26T01:51:53.468Z,64.440918
2018-09-26T01:52:23.083Z,64.538574
2018-09-26T01:52:52.549Z,64.440918
2018-09-26T01:53:21.949Z,64.440918
2018-09-26T01:53:51.351Z,64.337158
2018-09-26T01:54:20.894Z,64.440918
2018-09-26T01:54:50.348Z,64.538574
2018-09-26T01:55:19.790Z,64.141846
2018-09-26T01:55:49.212Z,64.239502
2018-09-26T01:56:18.587Z,64.141846
2018-09-26T01:56:47.998Z,64.239502
2018-09-26T01:57:17.412Z,64.038086
2018-09-26T01:57:46.838Z,63.94043
2018-09-26T01:58:16.239Z,64.038086
2018-09-26T01:58:45.684Z,64.038086
2018-09-26T01:59:15.290Z,64.038086
2018-09-26T01:59:45.215Z,64.038086
2018-09-26T02:00:14.609Z,64.038086
2018-09-26T02:00:43.993Z,63.94043
2018-09-26T02:01:13.395Z,63.94043
2018-09-26T02:01:42.780Z,64.141846
2018-09-26T02:02:12.184Z,63.842773
2018-09-26T02:02:41.570Z,63.812256
2018-09-26T02:03:10.988Z,64.007568
2018-09-26T02:03:40.407Z,63.641357
2018-09-26T02:04:09.795Z,63.739014
2018-09-26T02:04:39.245Z,63.94043
2018-09-26T02:05:08.611Z,64.038086
2018-09-26T02:05:38.020Z,64.038086
2018-09-26T02:06:07.388Z,64.239502
2018-09-26T02:06:36.788Z,64.239502
2018-09-26T02:07:06.193Z,64.569092
2018-09-26T02:07:35.566Z,64.770508
2018-09-26T02:08:05.056Z,65.06958
2018-09-26T02:08:34.356Z,65.06958
2018-09-26T02:09:03.744Z,65.100098
2018-09-26T02:09:33.184Z,65.06958
2018-09-26T02:10:02.603Z,64.770508
2018-09-26T02:10:31.980Z,64.770508
2018-09-26T02:11:01.370Z,64.868164
2018-09-26T02:11:30.805Z,64.770508
2018-09-26T02:12:00.190Z,64.666748
2018-09-26T02:12:29.566Z,65.06958
2018-09-26T02:12:58.973Z,64.770508
2018-09-26T02:13:28.360Z,64.471436
2018-09-26T02:13:57.767Z,64.770508
2018-09-26T02:14:27.130Z,65.496826
2018-09-26T02:14:56.611Z,66.326904
2018-09-26T02:15:26.017Z,67.059326
2018-09-26T02:15:55.397Z,67.492676
2018-09-26T02:16:24.781Z,67.993164
2018-09-26T02:16:54.240Z,68.389893
2018-09-26T02:17:23.608Z,68.426514
2018-09-26T02:17:52.972Z,68.19458
2018-09-26T02:18:22.347Z,67.993164
2018-09-26T02:18:51.724Z,67.791748
2018-09-26T02:19:21.104Z,67.462158
2018-09-26T02:19:50.528Z,67.559814
2018-09-26T02:20:19.922Z,67.260742
2018-09-26T02:20:49.302Z,66.625977
2018-09-26T02:21:18.739Z,66.229248
2018-09-26T02:21:48.120Z,66.326904
2018-09-26T02:22:17.528Z,65.997314
2018-09-26T02:22:46.939Z,65.301514
2018-09-26T02:23:16.336Z,65.197754
2018-09-26T02:23:45.751Z,65.100098
2018-09-26T02:24:15.114Z,64.996338
2018-09-26T02:24:44.512Z,64.770508
2018-09-26T02:25:13.983Z,64.770508
2018-09-26T02:25:43.362Z,64.569092
2018-09-26T02:26:12.771Z,64.569092
2018-09-26T02:26:42.150Z,64.367676
2018-09-26T02:27:11.513Z,64.172363
2018-09-26T02:27:40.920Z,64.068604
2018-09-26T02:28:10.294Z,64.068604
2018-09-26T02:28:39.693Z,63.970947
2018-09-26T02:29:09.069Z,64.068604
2018-09-26T02:29:38.432Z,64.141846
2018-09-26T02:30:07.868Z,63.739014
2018-09-26T02:30:37.222Z,63.842773
2018-09-26T02:31:06.585Z,63.641357
2018-09-26T02:31:35.972Z,63.439941
2018-09-26T02:32:05.335Z,63.641357
2018-09-26T02:32:34.741Z,63.537598
2018-09-26T02:33:04.115Z,63.641357
2018-09-26T02:33:33.524Z,63.537598
2018-09-26T02:34:02.884Z,63.537598
2018-09-26T02:34:32.268Z,63.439941
2018-09-26T02:35:01.718Z,63.439941
2018-09-26T02:35:31.200Z,63.641357
2018-09-26T02:36:00.561Z,63.537598
2018-09-26T02:36:29.919Z,63.641357
2018-09-26T02:36:59.321Z,63.641357
2018-09-26T02:37:28.697Z,63.641357
2018-09-26T02:37:58.102Z,63.641357
2018-09-26T02:38:27.477Z,63.537598
2018-09-26T02:38:56.864Z,63.537598
2018-09-26T02:39:26.263Z,63.439941
2018-09-26T02:39:55.639Z,63.439941
2018-09-26T02:40:25.091Z,63.537598
2018-09-26T02:40:54.711Z,63.439941
2018-09-26T02:41:27.544Z,63.342285
2018-09-26T02:41:57.024Z,63.537598
2018-09-26T02:42:26.396Z,63.739014
2018-09-26T02:42:55.786Z,63.537598
2018-09-26T02:43:25.177Z,63.537598
2018-09-26T02:43:54.558Z,63.537598
2018-09-26T02:44:23.946Z,63.439941
2018-09-26T02:44:53.306Z,63.342285
2018-09-26T02:45:22.668Z,63.439941
2018-09-26T02:45:52.117Z,63.342285
2018-09-26T02:46:21.508Z,63.439941
2018-09-26T02:46:50.923Z,63.439941
2018-09-26T02:47:21.291Z,63.140869
2018-09-26T02:47:50.661Z,63.238525
2018-09-26T02:48:20.082Z,63.342285
2018-09-26T02:48:49.453Z,63.372803
2018-09-26T02:49:18.861Z,63.769531
2018-09-26T02:49:48.267Z,64.501953
2018-09-26T02:50:17.607Z,65.130615
2018-09-26T02:50:47.037Z,65.661621
2018-09-26T02:51:17.531Z,65.863037
2018-09-26T02:51:46.906Z,66.162109
2018-09-26T02:52:16.287Z,66.259766
2018-09-26T02:52:46.705Z,66.259766
2018-09-26T02:53:16.114Z,66.162109
2018-09-26T02:53:45.513Z,66.363525
2018-09-26T02:54:14.900Z,66.259766
2018-09-26T02:54:44.290Z,66.52832
2018-09-26T02:55:13.671Z,65.631104
2018-09-26T02:55:43.145Z,65.228271
2018-09-26T02:56:12.460Z,65.032959
2018-09-26T02:56:41.838Z,64.929199
2018-09-26T02:57:11.225Z,65.032959
2018-09-26T02:57:40.605Z,65.228271
2018-09-26T02:58:09.980Z,65.228271
2018-09-26T02:58:39.338Z,65.826416
2018-09-26T02:59:09.704Z,64.801025
2018-09-26T02:59:39.080Z,64.599609
2018-09-26T03:00:08.453Z,64.501953
2018-09-26T03:00:37.802Z,64.300537
2018-09-26T03:01:07.233Z,64.300537
2018-09-26T03:01:36.585Z,64.068604
2018-09-26T03:02:05.941Z,63.873291
2018-09-26T03:02:35.326Z,63.873291
2018-09-26T03:03:05.702Z,63.970947
2018-09-26T03:03:35.094Z,63.769531
2018-09-26T03:04:04.450Z,63.671875
2018-09-26T03:04:33.813Z,63.671875
2018-09-26T03:05:03.230Z,63.568115
2018-09-26T03:05:32.606Z,63.671875
2018-09-26T03:06:02.033Z,63.671875
2018-09-26T03:06:31.421Z,63.671875
2018-09-26T03:07:00.774Z,63.769531
2018-09-26T03:07:30.147Z,63.769531
2018-09-26T03:07:59.516Z,63.671875
2018-09-26T03:08:28.910Z,63.970947
2018-09-26T03:08:58.274Z,63.769531
2018-09-26T03:09:27.649Z,63.873291
2018-09-26T03:09:57.010Z,63.769531
2018-09-26T03:10:26.379Z,63.873291
2018-09-26T03:10:55.846Z,64.099121
2018-09-26T03:11:25.178Z,64.202881
2018-09-26T03:11:54.554Z,64.471436
2018-09-26T03:12:23.922Z,64.172363
2018-09-26T03:12:53.320Z,64.068604
2018-09-26T03:13:22.713Z,64.068604
2018-09-26T03:13:53.083Z,63.568115
2018-09-26T03:14:22.463Z,63.470459
2018-09-26T03:14:51.827Z,63.470459
2018-09-26T03:15:21.190Z,63.372803
2018-09-26T03:15:50.562Z,63.470459
2018-09-26T03:16:19.978Z,64.172363
2018-09-26T03:16:49.369Z,63.769531
2018-09-26T03:17:18.747Z,63.568115
2018-09-26T03:17:48.262Z,63.568115
2018-09-26T03:18:17.539Z,63.470459
2018-09-26T03:18:46.900Z,63.372803
2018-09-26T03:19:16.269Z,64.172363
2018-09-26T03:19:45.635Z,63.171387
2018-09-26T03:20:14.988Z,63.07373
2018-09-26T03:20:44.346Z,63.171387
2018-09-26T03:21:13.722Z,63.269043
2018-09-26T03:21:43.144Z,63.171387
2018-09-26T03:22:12.514Z,63.269043
2018-09-26T03:22:41.940Z,63.07373
2018-09-26T03:23:11.418Z,63.171387
2018-09-26T03:23:41.814Z,63.07373
2018-09-26T03:24:11.187Z,62.872314
2018-09-26T03:24:40.573Z,62.969971
2018-09-26T03:25:09.951Z,63.07373
2018-09-26T03:25:39.307Z,62.969971
2018-09-26T03:26:08.726Z,63.372803
2018-09-26T03:26:38.153Z,62.969971
2018-09-26T03:27:07.505Z,62.969971
2018-09-26T03:27:36.866Z,63.171387
2018-09-26T03:28:06.230Z,63.07373
2018-09-26T03:28:35.587Z,63.07373
2018-09-26T03:29:04.948Z,63.07373
2018-09-26T03:29:34.306Z,63.07373
2018-09-26T03:30:03.673Z,63.201904
2018-09-26T03:30:34.022Z,63.201904
2018-09-26T03:31:03.396Z,63.40332
2018-09-26T03:31:32.759Z,63.40332
2018-09-26T03:32:02.177Z,63.40332
2018-09-26T03:32:31.544Z,63.40332
2018-09-26T03:33:00.905Z,63.500977
2018-09-26T03:33:30.332Z,63.500977
2018-09-26T03:33:59.634Z,63.598633
2018-09-26T03:34:29.002Z,63.903809
2018-09-26T03:34:58.363Z,63.830566
2018-09-26T03:35:27.731Z,64.331055
2018-09-26T03:35:57.095Z,64.862061
2018-09-26T03:36:26.448Z,65.258789
2018-09-26T03:36:55.863Z,65.258789
2018-09-26T03:37:25.220Z,65.063477
2018-09-26T03:37:54.582Z,64.959717
2018-09-26T03:38:23.965Z,64.764404
2018-09-26T03:38:53.336Z,64.630127
2018-09-26T03:39:22.695Z,64.831543
2018-09-26T03:39:52.059Z,64.630127
2018-09-26T03:40:21.425Z,64.727783
2018-09-26T03:40:50.784Z,64.630127
2018-09-26T03:41:20.143Z,64.428711
2018-09-26T03:41:49.509Z,64.428711
2018-09-26T03:42:18.940Z,64.862061
2018-09-26T03:42:48.337Z,65.258789
2018-09-26T03:43:17.705Z,65.789795
2018-09-26T03:43:47.097Z,66.522217
2018-09-26T03:44:16.465Z,66.925049
2018-09-26T03:44:45.848Z,67.156982
2018-09-26T03:45:15.241Z,67.254639
2018-09-26T03:45:45.627Z,67.657471
2018-09-26T03:46:15.018Z,67.987061
2018-09-26T03:46:44.376Z,68.09082
2018-09-26T03:47:13.804Z,68.188477
2018-09-26T03:47:43.157Z,67.858887
2018-09-26T03:48:12.517Z,67.858887
2018-09-26T03:48:42.872Z,68.09082
2018-09-26T03:49:12.251Z,68.389893
2018-09-26T03:49:41.623Z,68.292236
2018-09-26T03:50:10.994Z,68.188477
2018-09-26T03:50:40.365Z,67.858887
2018-09-26T03:51:10.710Z,67.553711
2018-09-26T03:51:40.066Z,67.523193
2018-09-26T03:52:09.424Z,66.821289
2018-09-26T03:52:38.862Z,66.723633
2018-09-26T03:53:08.230Z,66.223145
2018-09-26T03:53:37.599Z,66.320801
2018-09-26T03:54:06.972Z,66.320801
2018-09-26T03:54:36.326Z,66.424561
2018-09-26T03:55:05.686Z,65.991211
2018-09-26T03:55:35.045Z,65.893555
2018-09-26T03:56:04.413Z,66.223145
2018-09-26T03:56:33.792Z,66.320801
2018-09-26T03:57:03.156Z,66.223145
2018-09-26T03:57:32.587Z,66.094971
2018-09-26T03:58:01.931Z,66.192627
2018-09-26T03:58:32.279Z,66.125488
2018-09-26T03:59:01.654Z,66.192627
2018-09-26T03:59:31.011Z,65.991211
2018-09-26T04:00:00.381Z,65.789795
2018-09-26T04:00:29.759Z,65.893555
2018-09-26T04:00:59.113Z,65.692139
2018-09-26T04:01:28.478Z,65.490723
2018-09-26T04:01:57.836Z,65.393066
2018-09-26T04:02:27.211Z,65.258789
2018-09-26T04:02:57.619Z,65.161133
2018-09-26T04:03:26.989Z,65.161133
2018-09-26T04:03:56.364Z,65.063477
2018-09-26T04:04:25.735Z,64.959717
2018-09-26T04:04:55.108Z,64.764404
2018-09-26T04:05:24.477Z,64.459229
2018-09-26T04:05:53.845Z,64.562988
2018-09-26T04:06:23.260Z,64.727783
2018-09-26T04:06:52.649Z,65.332031
2018-09-26T04:07:22.028Z,64.532471
2018-09-26T04:07:51.456Z,65.130615
2018-09-26T04:08:20.815Z,64.331055
2018-09-26T04:08:50.229Z,64.428711
2018-09-26T04:09:19.576Z,64.428711
2018-09-26T04:09:48.945Z,64.428711
2018-09-26T04:10:18.314Z,64.562988
2018-09-26T04:10:47.697Z,64.562988
2018-09-26T04:11:17.061Z,64.764404
2018-09-26T04:11:46.423Z,64.660645
2018-09-26T04:12:15.801Z,64.532471
2018-09-26T04:12:45.275Z,64.532471
2018-09-26T04:13:14.757Z,64.331055
2018-09-26T04:13:43.995Z,64.233398
2018-09-26T04:14:13.366Z,64.331055
2018-09-26T04:14:42.731Z,64.459229
2018-09-26T04:15:12.126Z,64.562988
2018-09-26T04:15:41.604Z,64.660645
2018-09-26T04:16:10.853Z,64.660645
2018-09-26T04:16:40.219Z,65.258789
2018-09-26T04:17:09.587Z,64.532471
2018-09-26T04:17:38.938Z,64.263916
2018-09-26T04:18:08.377Z,64.630127
2018-09-26T04:18:37.751Z,64.459229
2018-09-26T04:19:07.112Z,64.233398
2018-09-26T04:19:36.479Z,64.233398
2018-09-26T04:20:05.843Z,64.331055
2018-09-26T04:20:35.213Z,64.233398
2018-09-26T04:21:04.587Z,64.233398
2018-09-26T04:21:33.979Z,64.129639
2018-09-26T04:22:03.330Z,64.233398
2018-09-26T04:22:32.698Z,64.331055
2018-09-26T04:23:02.069Z,64.361572
2018-09-26T04:23:31.502Z,64.660645
2018-09-26T04:24:00.873Z,64.959717
2018-09-26T04:24:30.252Z,65.093994
2018-09-26T04:24:59.622Z,65.19165
2018-09-26T04:25:28.994Z,65.063477
2018-09-26T04:25:58.361Z,65.063477
2018-09-26T04:26:27.828Z,64.959717
2018-09-26T04:26:57.254Z,64.764404
2018-09-26T04:27:26.617Z,64.862061
2018-09-26T04:27:55.837Z,65.161133
2018-09-26T04:28:26.237Z,65.258789
2018-09-26T04:28:55.647Z,64.764404
2018-09-26T04:29:25.007Z,64.459229
2018-09-26T04:29:54.367Z,64.727783
2018-09-26T04:30:24.857Z,64.129639
2018-09-26T04:30:54.087Z,63.934326
2018-09-26T04:31:23.453Z,63.934326
2018-09-26T04:31:52.814Z,63.73291
2018-09-26T04:32:22.189Z,63.73291
2018-09-26T04:32:51.797Z,63.73291
2018-09-26T04:33:21.203Z,63.830566
2018-09-26T04:33:50.501Z,63.830566
2018-09-26T04:34:20.814Z,64.160156
2018-09-26T04:34:50.211Z,64.233398
2018-09-26T04:35:20.579Z,64.031982
2018-09-26T04:35:49.959Z,64.160156
2018-09-26T04:36:19.340Z,65.332031
2018-09-26T04:36:48.724Z,64.129639
2018-09-26T04:37:18.082Z,64.129639
2018-09-26T04:37:47.445Z,64.263916
2018-09-26T04:38:16.813Z,64.562988
2018-09-26T04:38:46.288Z,64.361572
2018-09-26T04:39:15.589Z,64.160156
2018-09-26T04:39:45.950Z,64.129639
2018-09-26T04:40:15.333Z,64.0625
2018-09-26T04:40:44.696Z,64.459229
2018-09-26T04:41:14.066Z,65.093994
2018-09-26T04:41:43.452Z,65.289307
2018-09-26T04:42:12.827Z,65.093994
2018-09-26T04:42:42.195Z,64.990234
2018-09-26T04:43:11.584Z,64.794922
2018-09-26T04:43:40.954Z,65.161133
2018-09-26T04:44:10.382Z,64.660645
2018-09-26T04:44:39.751Z,64.562988
2018-09-26T04:45:09.125Z,64.361572
2018-09-26T04:45:38.487Z,64.361572
2018-09-26T04:46:07.854Z,64.459229
2018-09-26T04:46:37.239Z,64.862061
2018-09-26T04:47:06.641Z,64.660645
2018-09-26T04:47:36.013Z,64.959717
2018-09-26T04:48:05.370Z,64.862061
2018-09-26T04:48:34.731Z,64.764404
2018-09-26T04:49:04.194Z,64.764404
2018-09-26T04:49:33.582Z,64.562988
2018-09-26T04:50:02.975Z,64.459229
2018-09-26T04:50:32.341Z,64.562988
2018-09-26T04:51:01.715Z,64.892578
2018-09-26T04:51:31.081Z,64.990234
2018-09-26T04:52:00.455Z,65.19165
2018-09-26T04:52:29.815Z,65.093994
2018-09-26T04:52:59.211Z,64.892578
2018-09-26T04:53:28.740Z,64.794922
2018-09-26T04:53:58.151Z,64.794922
2018-09-26T04:54:27.591Z,65.093994
2018-09-26T04:54:57.233Z,65.722656
2018-09-26T04:55:26.609Z,66.156006
2018-09-26T04:55:55.982Z,66.253662
2018-09-26T04:56:25.350Z,66.253662
2018-09-26T04:56:54.729Z,66.357422
2018-09-26T04:57:24.089Z,66.552734
2018-09-26T04:57:53.558Z,66.223145
2018-09-26T04:58:22.926Z,65.826416
2018-09-26T04:58:53.243Z,65.722656
2018-09-26T04:59:22.639Z,65.325928
2018-09-26T04:59:52.008Z,65.19165
2018-09-26T05:00:21.371Z,65.19165
2018-09-26T05:00:50.749Z,65.19165
2018-09-26T05:01:20.113Z,64.990234
2018-09-26T05:01:49.475Z,64.892578
2018-09-26T05:02:18.835Z,64.892578
2018-09-26T05:02:49.212Z,64.892578
2018-09-26T05:03:19.231Z,64.691162
2018-09-26T05:03:49.608Z,64.691162
2018-09-26T05:04:18.972Z,64.691162
2018-09-26T05:04:48.366Z,65.093994
2018-09-26T05:05:17.728Z,65.093994
2018-09-26T05:05:47.107Z,65.093994
2018-09-26T05:06:16.466Z,64.691162
2018-09-26T05:06:45.830Z,64.593506
2018-09-26T05:07:15.187Z,64.691162
2018-09-26T05:07:44.557Z,64.691162
2018-09-26T05:08:13.934Z,64.691162
2018-09-26T05:08:43.281Z,64.593506
2018-09-26T05:09:12.648Z,64.990234
2018-09-26T05:09:42.061Z,65.19165
2018-09-26T05:10:11.443Z,64.990234
2018-09-26T05:10:40.806Z,64.794922
2018-09-26T05:11:11.174Z,64.794922
2018-09-26T05:11:40.527Z,64.892578
2018-09-26T05:12:09.894Z,64.892578
2018-09-26T05:12:39.254Z,65.222168
2018-09-26T05:13:08.616Z,65.423584
2018-09-26T05:13:37.983Z,65.423584
2018-09-26T05:14:07.357Z,65.991211
2018-09-26T05:14:36.741Z,65.19165
2018-09-26T05:15:06.162Z,65.289307
2018-09-26T05:15:35.510Z,64.990234
2018-09-26T05:16:04.879Z,64.892578
2018-09-26T05:16:34.250Z,64.892578
2018-09-26T05:17:03.628Z,65.222168
2018-09-26T05:17:32.994Z,65.722656
2018-09-26T05:18:02.362Z,66.021729
2018-09-26T05:18:31.725Z,65.924072
2018-09-26T05:19:01.091Z,65.722656
2018-09-26T05:19:30.467Z,65.722656
2018-09-26T05:19:59.922Z,65.722656
2018-09-26T05:20:29.286Z,65.52124
2018-09-26T05:20:58.657Z,65.52124
2018-09-26T05:21:28.018Z,65.423584
2018-09-26T05:21:57.402Z,65.19165
2018-09-26T05:22:26.761Z,65.19165
2018-09-26T05:22:56.141Z,65.19165
2018-09-26T05:23:25.528Z,65.093994
2018-09-26T05:23:54.919Z,64.990234
2018-09-26T05:24:24.257Z,64.990234
2018-09-26T05:24:53.616Z,64.990234
2018-09-26T05:25:23.047Z,65.093994
2018-09-26T05:25:52.408Z,65.093994
2018-09-26T05:26:21.778Z,64.892578
2018-09-26T05:26:51.155Z,64.990234
2018-09-26T05:27:20.533Z,65.093994
2018-09-26T05:27:49.896Z,64.892578
2018-09-26T05:28:19.262Z,64.990234
2018-09-26T05:28:48.618Z,65.093994
2018-09-26T05:29:17.991Z,65.093994
2018-09-26T05:29:47.365Z,64.990234
2018-09-26T05:30:16.828Z,64.794922
2018-09-26T05:30:46.166Z,64.892578
2018-09-26T05:31:15.562Z,64.892578
2018-09-26T05:31:44.943Z,64.794922
2018-09-26T05:32:14.331Z,64.892578
2018-09-26T05:32:43.737Z,64.794922
2018-09-26T05:33:13.132Z,64.794922
2018-09-26T05:33:42.506Z,64.593506
2018-09-26T05:34:11.897Z,64.794922
2018-09-26T05:34:41.256Z,64.794922
2018-09-26T05:35:10.648Z,64.691162
2018-09-26T05:35:40.080Z,64.691162
2018-09-26T05:36:09.530Z,64.794922
2018-09-26T05:36:38.923Z,64.892578
2018-09-26T05:37:08.329Z,64.794922
2018-09-26T05:37:37.742Z,64.593506